FlightSource - Aviation Photo Database

World Wide Airport Lookup


Search by ICAO
Or
Search by City

FlightSource.ca - Aviation Photo Database - Padre Aldamiz Airport Information
Airport Identification
Name: Padre Aldamiz Airport
ICAO: SPTU
IATA: PEM
Airport Location
City:
Region: MDD
Country: Perú
Continent: South America
Latitude: -12.6136
Longitude: -69.2286
Airport Information
Type: Medium Airport
Elevation: 659 Feet ASL
Flight Status: SPTU
More Info: SPTU
Airport Weather    
Metar: SPTU 221400Z 15007KT 120V180 9999 SCT010 BKN030 OVC070 24/22 Q1014 RMK BIRD HAZARD RWY 01/19 PP000
TAF:


Advertisement